Cottonwood, Illinois
Current Conditions -  °F | °C
As of 12:53 AM on Saturday 25 Oct 2014 (Local Time) from KMTO Reporting Station
Overcast Overcast  
Wind Chill: 61°   Ceiling: 4300
Heat Index: 61°   Visibility: 10mi
Dew Point: 52°   Wind: 9mph
Humidity: 72%   Direction: 190°S
Pressure: 29.98"   Gusts: NA
Location:  39.2896°N, 88.2485°W
Report Text: KMTO 250553Z AUTO 19008KT 10SM OVC043 16/11 A2998 RMK AO2 SLP150 T01610111 10161 20128 402060094 58008
Loading
Personal Weather Stations






























Interactive Weather Map
Tropical Storm Tracking
New forecast layout! Learn more

10-Day Weather Forecast

Advertisements
Track Severe Weather on mobile